KSSF/SSF METAR and TAF weather

Enter ICAO airport designator
Station Type Date Time Source
KSSF METAR 2020/02/26 08:53 UTC NOAA

KSSF 260853Z AUTO 33020G35KT 10SM OVC110 08/M08 A3029 RMK AO2 PK WND 33036/0806 SLP257 T00831078 53031


Station Type Date Time Source
KSSF Decoded METAR 2020/02/26 08:53 UTC NOAA

SAN ANTONIO STINSON MUNI, TX, United States (KSSF) 29-20N 098-28W 176M
Feb 26, 2020 - 03:53 AM EST / 2020.02.26 0853 UTC
Wind: from the NNW (330 degrees) at 23 MPH (20 KT) gusting to 40 MPH (35 KT):0
Visibility: 10 mile(s):0
Sky conditions: overcast
Temperature: 46.9 F (8.3 C)
Dew Point: 18.0 F (-7.8 C)
Relative Humidity: 31%
Pressure (altimeter): 30.29 in. Hg (1025 hPa)
Pressure tendency: 0.09 inches (3.1 hPa) higher than three hours ago
ob: KSSF 260853Z AUTO 33020G35KT 10SM OVC110 08/M08 A3029 RMK AO2 PK WND 33036/0806 SLP257 T00831078 53031
cycle: 9

Station Type Date Time Source
KSSF TAF 2020/02/26 06:36 UTC NOAA

TAF KSSF 260535Z 2606/2706 36011G21KT P6SM BKN100
FM261100 34016G26KT P6SM SKC
FM270000 VRB03KT P6SM SKC

Example: see airport list